sensor_id;sensor_type;location;lat;lon;timestamp;P1;durP1;ratioP1;P2;durP2;ratioP2
16543;SDS011;8384;47.996;7.786;2022-11-21T00:00:58;6.80;;;1.80;;
16543;SDS011;8384;47.996;7.786;2022-11-21T00:03:24;2.77;;;1.60;;
16543;SDS011;8384;47.996;7.786;2022-11-21T00:05:49;2.80;;;1.30;;
16543;SDS011;8384;47.996;7.786;2022-11-21T00:08:16;3.33;;;1.67;;
16543;SDS011;8384;47.996;7.786;2022-11-21T00:10:43;3.67;;;1.20;;
16543;SDS011;8384;47.996;7.786;2022-11-21T00:13:13;2.30;;;1.23;;
16543;SDS011;8384;47.996;7.786;2022-11-21T00:15:40;4.40;;;1.80;;
16543;SDS011;8384;47.996;7.786;2022-11-21T00:18:06;4.20;;;1.40;;
16543;SDS011;8384;47.996;7.786;2022-11-21T00:20:32;3.33;;;1.63;;
16543;SDS011;8384;47.996;7.786;2022-11-21T00:23:00;4.03;;;1.40;;
16543;SDS011;8384;47.996;7.786;2022-11-21T00:25:26;7.67;;;2.07;;
16543;SDS011;8384;47.996;7.786;2022-11-21T00:27:51;3.43;;;1.57;;
16543;SDS011;8384;47.996;7.786;2022-11-21T00:30:17;4.33;;;1.60;;
16543;SDS011;8384;47.996;7.786;2022-11-21T00:32:42;3.57;;;1.40;;
16543;SDS011;8384;47.996;7.786;2022-11-21T00:35:07;5.37;;;1.83;;
16543;SDS011;8384;47.996;7.786;2022-11-21T00:37:33;6.67;;;2.40;;
16543;SDS011;8384;47.996;7.786;2022-11-21T00:39:58;4.67;;;2.00;;
16543;SDS011;8384;47.996;7.786;2022-11-21T00:42:23;6.80;;;1.70;;
16543;SDS011;8384;47.996;7.786;2022-11-21T00:44:49;3.70;;;1.53;;
16543;SDS011;8384;47.996;7.786;2022-11-21T00:47:14;6.13;;;1.90;;
16543;SDS011;8384;47.996;7.786;2022-11-21T00:49:40;5.33;;;1.67;;
16543;SDS011;8384;47.996;7.786;2022-11-21T00:52:05;4.63;;;1.53;;
16543;SDS011;8384;47.996;7.786;2022-11-21T00:54:30;3.83;;;1.20;;
16543;SDS011;8384;47.996;7.786;2022-11-21T00:56:55;6.87;;;2.30;;
16543;SDS011;8384;47.996;7.786;2022-11-21T00:59:21;6.60;;;2.13;;
16543;SDS011;8384;47.996;7.786;2022-11-21T01:01:46;4.10;;;1.43;;
16543;SDS011;8384;47.996;7.786;2022-11-21T01:04:11;8.07;;;1.80;;
16543;SDS011;8384;47.996;7.786;2022-11-21T01:06:37;6.67;;;1.97;;
16543;SDS011;8384;47.996;7.786;2022-11-21T01:09:03;6.10;;;1.60;;
16543;SDS011;8384;47.996;7.786;2022-11-21T01:11:28;4.30;;;1.47;;
16543;SDS011;8384;47.996;7.786;2022-11-21T01:13:54;6.73;;;1.70;;
16543;SDS011;8384;47.996;7.786;2022-11-21T01:16:21;3.30;;;1.40;;
16543;SDS011;8384;47.996;7.786;2022-11-21T01:18:48;2.70;;;1.37;;
16543;SDS011;8384;47.996;7.786;2022-11-21T01:21:14;5.37;;;1.40;;
16543;SDS011;8384;47.996;7.786;2022-11-21T01:23:44;6.13;;;1.50;;
16543;SDS011;8384;47.996;7.786;2022-11-21T01:26:11;6.20;;;1.97;;
16543;SDS011;8384;47.996;7.786;2022-11-21T01:28:38;3.77;;;1.73;;
16543;SDS011;8384;47.996;7.786;2022-11-21T01:33:30;3.17;;;1.53;;
16543;SDS011;8384;47.996;7.786;2022-11-21T01:35:56;6.60;;;1.60;;
16543;SDS011;8384;47.996;7.786;2022-11-21T01:38:21;5.70;;;1.70;;
16543;SDS011;8384;47.996;7.786;2022-11-21T01:40:46;4.53;;;1.73;;
16543;SDS011;8384;47.996;7.786;2022-11-21T01:43:12;3.60;;;1.47;;
16543;SDS011;8384;47.996;7.786;2022-11-21T01:45:52;7.93;;;1.77;;
16543;SDS011;8384;47.996;7.786;2022-11-21T01:53:49;4.27;;;1.53;;
16543;SDS011;8384;47.996;7.786;2022-11-21T01:56:18;5.57;;;1.53;;
16543;SDS011;8384;47.996;7.786;2022-11-21T01:58:45;7.00;;;1.57;;
16543;SDS011;8384;47.996;7.786;2022-11-21T02:01:12;4.37;;;1.80;;
16543;SDS011;8384;47.996;7.786;2022-11-21T02:03:38;8.43;;;1.63;;
16543;SDS011;8384;47.996;7.786;2022-11-21T02:06:07;6.33;;;1.83;;
16543;SDS011;8384;47.996;7.786;2022-11-21T02:08:33;5.73;;;1.40;;
16543;SDS011;8384;47.996;7.786;2022-11-21T02:11:03;7.23;;;1.73;;
16543;SDS011;8384;47.996;7.786;2022-11-21T02:13:36;5.60;;;1.63;;
16543;SDS011;8384;47.996;7.786;2022-11-21T02:16:01;5.10;;;1.73;;
16543;SDS011;8384;47.996;7.786;2022-11-21T02:18:27;3.17;;;1.30;;
16543;SDS011;8384;47.996;7.786;2022-11-21T02:20:57;6.83;;;2.20;;
16543;SDS011;8384;47.996;7.786;2022-11-21T02:23:35;6.70;;;1.73;;
16543;SDS011;8384;47.996;7.786;2022-11-21T02:26:08;4.50;;;1.50;;
16543;SDS011;8384;47.996;7.786;2022-11-21T02:28:34;6.70;;;1.60;;
16543;SDS011;8384;47.996;7.786;2022-11-21T02:31:00;5.77;;;1.77;;
16543;SDS011;8384;47.996;7.786;2022-11-21T02:33:25;7.07;;;1.77;;
16543;SDS011;8384;47.996;7.786;2022-11-21T02:36:00;5.03;;;1.50;;
16543;SDS011;8384;47.996;7.786;2022-11-21T02:38:27;5.67;;;1.57;;
16543;SDS011;8384;47.996;7.786;2022-11-21T02:43:45;5.50;;;1.50;;
16543;SDS011;8384;47.996;7.786;2022-11-21T02:46:15;6.97;;;1.70;;
16543;SDS011;8384;47.996;7.786;2022-11-21T02:48:40;5.63;;;1.40;;
16543;SDS011;8384;47.996;7.786;2022-11-21T02:51:05;7.80;;;1.70;;
16543;SDS011;8384;47.996;7.786;2022-11-21T02:53:31;3.90;;;1.27;;
16543;SDS011;8384;47.996;7.786;2022-11-21T02:55:56;9.13;;;2.47;;
16543;SDS011;8384;47.996;7.786;2022-11-21T02:58:21;5.07;;;1.20;;
16543;SDS011;8384;47.996;7.786;2022-11-21T03:00:46;4.87;;;1.50;;
16543;SDS011;8384;47.996;7.786;2022-11-21T03:03:12;6.07;;;1.40;;
16543;SDS011;8384;47.996;7.786;2022-11-21T03:05:38;4.27;;;1.50;;
16543;SDS011;8384;47.996;7.786;2022-11-21T03:08:04;4.00;;;1.13;;
16543;SDS011;8384;47.996;7.786;2022-11-21T03:10:30;5.23;;;1.60;;
16543;SDS011;8384;47.996;7.786;2022-11-21T03:12:55;3.33;;;1.33;;
16543;SDS011;8384;47.996;7.786;2022-11-21T03:15:25;4.47;;;1.50;;
16543;SDS011;8384;47.996;7.786;2022-11-21T03:17:51;4.27;;;1.20;;
16543;SDS011;8384;47.996;7.786;2022-11-21T03:20:16;6.60;;;1.43;;
16543;SDS011;8384;47.996;7.786;2022-11-21T03:22:41;5.50;;;1.43;;
16543;SDS011;8384;47.996;7.786;2022-11-21T03:25:07;5.23;;;1.63;;
16543;SDS011;8384;47.996;7.786;2022-11-21T03:27:32;4.43;;;1.10;;
16543;SDS011;8384;47.996;7.786;2022-11-21T03:29:58;5.60;;;1.27;;
16543;SDS011;8384;47.996;7.786;2022-11-21T03:32:23;3.50;;;1.00;;
16543;SDS011;8384;47.996;7.786;2022-11-21T03:34:48;3.90;;;1.03;;
16543;SDS011;8384;47.996;7.786;2022-11-21T03:37:13;3.20;;;1.10;;
16543;SDS011;8384;47.996;7.786;2022-11-21T03:39:39;8.13;;;1.60;;
16543;SDS011;8384;47.996;7.786;2022-11-21T03:42:04;3.47;;;1.67;;
16543;SDS011;8384;47.996;7.786;2022-11-21T03:44:29;4.53;;;1.40;;
16543;SDS011;8384;47.996;7.786;2022-11-21T03:46:54;6.10;;;1.00;;
16543;SDS011;8384;47.996;7.786;2022-11-21T03:49:20;4.47;;;1.47;;
16543;SDS011;8384;47.996;7.786;2022-11-21T03:51:45;2.00;;;1.00;;
16543;SDS011;8384;47.996;7.786;2022-11-21T03:54:11;3.00;;;1.30;;
16543;SDS011;8384;47.996;7.786;2022-11-21T03:56:36;9.40;;;1.87;;
16543;SDS011;8384;47.996;7.786;2022-11-21T03:59:03;4.57;;;1.50;;
16543;SDS011;8384;47.996;7.786;2022-11-21T04:01:29;4.63;;;1.47;;
16543;SDS011;8384;47.996;7.786;2022-11-21T04:03:54;5.73;;;1.80;;
16543;SDS011;8384;47.996;7.786;2022-11-21T04:06:20;3.50;;;1.30;;
16543;SDS011;8384;47.996;7.786;2022-11-21T04:08:46;3.30;;;1.50;;
16543;SDS011;8384;47.996;7.786;2022-11-21T04:11:12;4.23;;;1.37;;
16543;SDS011;8384;47.996;7.786;2022-11-21T04:13:37;3.37;;;1.30;;
16543;SDS011;8384;47.996;7.786;2022-11-21T04:16:03;5.10;;;1.60;;
16543;SDS011;8384;47.996;7.786;2022-11-21T04:18:29;4.80;;;1.43;;
16543;SDS011;8384;47.996;7.786;2022-11-21T04:20:55;5.03;;;1.10;;
16543;SDS011;8384;47.996;7.786;2022-11-21T04:23:21;4.07;;;0.93;;
16543;SDS011;8384;47.996;7.786;2022-11-21T04:25:47;6.00;;;1.40;;
16543;SDS011;8384;47.996;7.786;2022-11-21T04:28:12;4.10;;;1.43;;
16543;SDS011;8384;47.996;7.786;2022-11-21T04:30:38;5.20;;;1.30;;
16543;SDS011;8384;47.996;7.786;2022-11-21T04:33:03;4.63;;;1.53;;
16543;SDS011;8384;47.996;7.786;2022-11-21T04:35:29;3.87;;;1.57;;
16543;SDS011;8384;47.996;7.786;2022-11-21T04:37:54;4.30;;;1.43;;
16543;SDS011;8384;47.996;7.786;2022-11-21T04:40:19;5.70;;;1.60;;
16543;SDS011;8384;47.996;7.786;2022-11-21T04:42:45;3.17;;;1.13;;
16543;SDS011;8384;47.996;7.786;2022-11-21T04:45:11;4.80;;;1.30;;
16543;SDS011;8384;47.996;7.786;2022-11-21T04:47:39;4.13;;;1.40;;
16543;SDS011;8384;47.996;7.786;2022-11-21T04:50:06;4.77;;;1.30;;
16543;SDS011;8384;47.996;7.786;2022-11-21T04:52:32;5.87;;;1.73;;
16543;SDS011;8384;47.996;7.786;2022-11-21T04:54:59;6.03;;;1.63;;
16543;SDS011;8384;47.996;7.786;2022-11-21T04:57:26;3.93;;;1.50;;
16543;SDS011;8384;47.996;7.786;2022-11-21T04:59:52;4.40;;;1.37;;
16543;SDS011;8384;47.996;7.786;2022-11-21T05:02:17;2.33;;;1.20;;
16543;SDS011;8384;47.996;7.786;2022-11-21T05:04:43;7.40;;;1.40;;
16543;SDS011;8384;47.996;7.786;2022-11-21T05:07:08;6.23;;;1.60;;
16543;SDS011;8384;47.996;7.786;2022-11-21T05:09:33;4.40;;;1.73;;
16543;SDS011;8384;47.996;7.786;2022-11-21T05:11:59;7.83;;;1.80;;
16543;SDS011;8384;47.996;7.786;2022-11-21T05:14:42;4.13;;;1.30;;
16543;SDS011;8384;47.996;7.786;2022-11-21T05:17:08;6.67;;;1.80;;
16543;SDS011;8384;47.996;7.786;2022-11-21T05:19:33;4.37;;;1.40;;
16543;SDS011;8384;47.996;7.786;2022-11-21T05:21:58;6.00;;;2.03;;
16543;SDS011;8384;47.996;7.786;2022-11-21T05:24:24;4.57;;;1.47;;
16543;SDS011;8384;47.996;7.786;2022-11-21T05:26:49;6.03;;;1.50;;
16543;SDS011;8384;47.996;7.786;2022-11-21T05:29:14;9.40;;;2.13;;
16543;SDS011;8384;47.996;7.786;2022-11-21T05:31:39;9.73;;;2.00;;
16543;SDS011;8384;47.996;7.786;2022-11-21T05:34:05;6.00;;;2.23;;
16543;SDS011;8384;47.996;7.786;2022-11-21T05:36:30;9.20;;;1.87;;
16543;SDS011;8384;47.996;7.786;2022-11-21T05:38:55;5.10;;;1.80;;
16543;SDS011;8384;47.996;7.786;2022-11-21T05:41:21;3.80;;;1.67;;
16543;SDS011;8384;47.996;7.786;2022-11-21T05:43:46;4.10;;;1.80;;
16543;SDS011;8384;47.996;7.786;2022-11-21T05:46:13;5.60;;;1.90;;
16543;SDS011;8384;47.996;7.786;2022-11-21T05:48:39;3.57;;;1.60;;
16543;SDS011;8384;47.996;7.786;2022-11-21T05:51:05;3.47;;;1.93;;
16543;SDS011;8384;47.996;7.786;2022-11-21T05:53:31;4.30;;;1.73;;
16543;SDS011;8384;47.996;7.786;2022-11-21T05:56:00;5.07;;;1.70;;
16543;SDS011;8384;47.996;7.786;2022-11-21T05:58:36;4.57;;;1.87;;
16543;SDS011;8384;47.996;7.786;2022-11-21T06:01:01;4.77;;;1.67;;
16543;SDS011;8384;47.996;7.786;2022-11-21T06:03:28;3.13;;;1.50;;
16543;SDS011;8384;47.996;7.786;2022-11-21T06:06:00;3.23;;;1.10;;
16543;SDS011;8384;47.996;7.786;2022-11-21T06:08:31;4.47;;;1.30;;
16543;SDS011;8384;47.996;7.786;2022-11-21T06:10:58;4.43;;;1.23;;
16543;SDS011;8384;47.996;7.786;2022-11-21T06:13:23;4.00;;;1.37;;
16543;SDS011;8384;47.996;7.786;2022-11-21T06:15:53;4.33;;;1.50;;
16543;SDS011;8384;47.996;7.786;2022-11-21T06:18:22;3.33;;;1.03;;
16543;SDS011;8384;47.996;7.786;2022-11-21T06:20:48;5.30;;;1.37;;
16543;SDS011;8384;47.996;7.786;2022-11-21T06:23:13;4.93;;;1.37;;
16543;SDS011;8384;47.996;7.786;2022-11-21T06:25:39;3.73;;;1.23;;
16543;SDS011;8384;47.996;7.786;2022-11-21T06:28:04;2.53;;;1.17;;
16543;SDS011;8384;47.996;7.786;2022-11-21T06:30:30;3.63;;;1.17;;
16543;SDS011;8384;47.996;7.786;2022-11-21T06:32:55;4.63;;;1.33;;
16543;SDS011;8384;47.996;7.786;2022-11-21T06:35:20;4.93;;;1.43;;
16543;SDS011;8384;47.996;7.786;2022-11-21T06:37:45;2.67;;;1.00;;
16543;SDS011;8384;47.996;7.786;2022-11-21T06:40:11;3.60;;;1.10;;
16543;SDS011;8384;47.996;7.786;2022-11-21T06:42:36;4.67;;;1.40;;
16543;SDS011;8384;47.996;7.786;2022-11-21T06:45:02;4.67;;;1.17;;
16543;SDS011;8384;47.996;7.786;2022-11-21T06:47:27;2.43;;;1.13;;
16543;SDS011;8384;47.996;7.786;2022-11-21T06:49:53;2.23;;;0.73;;
16543;SDS011;8384;47.996;7.786;2022-11-21T06:52:18;2.33;;;0.90;;
16543;SDS011;8384;47.996;7.786;2022-11-21T06:54:43;3.37;;;1.17;;
16543;SDS011;8384;47.996;7.786;2022-11-21T06:57:09;5.53;;;1.30;;
16543;SDS011;8384;47.996;7.786;2022-11-21T06:59:34;5.50;;;1.60;;
16543;SDS011;8384;47.996;7.786;2022-11-21T07:01:59;3.97;;;1.60;;
16543;SDS011;8384;47.996;7.786;2022-11-21T07:04:26;4.57;;;0.90;;
16543;SDS011;8384;47.996;7.786;2022-11-21T07:06:51;4.00;;;1.30;;
16543;SDS011;8384;47.996;7.786;2022-11-21T07:09:16;3.77;;;1.20;;
16543;SDS011;8384;47.996;7.786;2022-11-21T07:11:41;3.97;;;1.40;;
16543;SDS011;8384;47.996;7.786;2022-11-21T07:14:07;2.07;;;0.90;;
16543;SDS011;8384;47.996;7.786;2022-11-21T07:16:32;6.53;;;1.73;;
16543;SDS011;8384;47.996;7.786;2022-11-21T07:18:58;4.80;;;1.40;;
16543;SDS011;8384;47.996;7.786;2022-11-21T07:21:24;4.07;;;1.30;;
16543;SDS011;8384;47.996;7.786;2022-11-21T07:23:50;4.67;;;1.30;;
16543;SDS011;8384;47.996;7.786;2022-11-21T07:26:15;4.97;;;1.53;;
16543;SDS011;8384;47.996;7.786;2022-11-21T07:28:41;3.17;;;1.47;;
16543;SDS011;8384;47.996;7.786;2022-11-21T07:31:07;4.90;;;1.53;;
16543;SDS011;8384;47.996;7.786;2022-11-21T07:33:33;7.30;;;1.60;;
16543;SDS011;8384;47.996;7.786;2022-11-21T07:35:58;6.57;;;1.40;;
16543;SDS011;8384;47.996;7.786;2022-11-21T07:38:24;7.83;;;1.53;;
16543;SDS011;8384;47.996;7.786;2022-11-21T07:40:50;3.90;;;1.53;;
16543;SDS011;8384;47.996;7.786;2022-11-21T07:43:16;3.00;;;1.33;;
16543;SDS011;8384;47.996;7.786;2022-11-21T07:45:41;6.37;;;2.20;;
16543;SDS011;8384;47.996;7.786;2022-11-21T07:48:06;5.90;;;1.40;;
16543;SDS011;8384;47.996;7.786;2022-11-21T07:50:33;5.13;;;1.80;;
16543;SDS011;8384;47.996;7.786;2022-11-21T07:52:59;5.87;;;1.87;;
16543;SDS011;8384;47.996;7.786;2022-11-21T07:55:26;8.10;;;2.23;;
16543;SDS011;8384;47.996;7.786;2022-11-21T08:00:23;9.97;;;2.70;;
16543;SDS011;8384;47.996;7.786;2022-11-21T08:02:49;8.57;;;1.70;;
16543;SDS011;8384;47.996;7.786;2022-11-21T08:05:14;6.37;;;1.87;;
16543;SDS011;8384;47.996;7.786;2022-11-21T08:07:39;8.83;;;1.80;;
16543;SDS011;8384;47.996;7.786;2022-11-21T08:10:05;8.03;;;1.83;;
16543;SDS011;8384;47.996;7.786;2022-11-21T08:12:31;8.50;;;1.73;;
16543;SDS011;8384;47.996;7.786;2022-11-21T08:14:56;7.40;;;1.83;;
16543;SDS011;8384;47.996;7.786;2022-11-21T08:17:24;8.97;;;2.00;;
16543;SDS011;8384;47.996;7.786;2022-11-21T08:19:50;6.57;;;2.13;;
16543;SDS011;8384;47.996;7.786;2022-11-21T08:22:15;6.67;;;2.07;;
16543;SDS011;8384;47.996;7.786;2022-11-21T08:24:40;9.10;;;1.90;;
16543;SDS011;8384;47.996;7.786;2022-11-21T08:27:06;6.83;;;2.17;;
16543;SDS011;8384;47.996;7.786;2022-11-21T08:29:31;6.10;;;1.90;;
16543;SDS011;8384;47.996;7.786;2022-11-21T08:31:56;9.70;;;2.33;;
16543;SDS011;8384;47.996;7.786;2022-11-21T08:34:21;6.50;;;1.73;;
16543;SDS011;8384;47.996;7.786;2022-11-21T08:36:47;8.73;;;2.43;;
16543;SDS011;8384;47.996;7.786;2022-11-21T08:39:12;11.57;;;2.17;;
16543;SDS011;8384;47.996;7.786;2022-11-21T08:41:37;6.97;;;2.10;;
16543;SDS011;8384;47.996;7.786;2022-11-21T08:44:21;10.27;;;2.57;;
16543;SDS011;8384;47.996;7.786;2022-11-21T08:46:46;7.23;;;2.07;;
16543;SDS011;8384;47.996;7.786;2022-11-21T08:49:11;8.63;;;2.10;;
16543;SDS011;8384;47.996;7.786;2022-11-21T08:51:37;6.50;;;2.30;;
16543;SDS011;8384;47.996;7.786;2022-11-21T08:54:02;8.97;;;2.40;;
16543;SDS011;8384;47.996;7.786;2022-11-21T08:56:27;9.30;;;2.20;;
16543;SDS011;8384;47.996;7.786;2022-11-21T08:58:53;7.53;;;1.83;;
16543;SDS011;8384;47.996;7.786;2022-11-21T09:01:20;7.87;;;2.33;;
16543;SDS011;8384;47.996;7.786;2022-11-21T09:03:45;9.03;;;2.47;;
16543;SDS011;8384;47.996;7.786;2022-11-21T09:06:10;8.83;;;2.70;;
16543;SDS011;8384;47.996;7.786;2022-11-21T09:08:37;9.40;;;2.70;;
16543;SDS011;8384;47.996;7.786;2022-11-21T09:11:03;6.90;;;2.00;;
16543;SDS011;8384;47.996;7.786;2022-11-21T09:13:29;9.80;;;2.47;;
16543;SDS011;8384;47.996;7.786;2022-11-21T09:15:56;8.87;;;2.30;;
16543;SDS011;8384;47.996;7.786;2022-11-21T09:18:41;8.27;;;2.10;;
16543;SDS011;8384;47.996;7.786;2022-11-21T09:21:06;9.00;;;2.80;;
16543;SDS011;8384;47.996;7.786;2022-11-21T09:23:31;9.23;;;2.50;;
16543;SDS011;8384;47.996;7.786;2022-11-21T09:25:58;9.57;;;2.40;;
16543;SDS011;8384;47.996;7.786;2022-11-21T09:28:24;9.00;;;2.50;;
16543;SDS011;8384;47.996;7.786;2022-11-21T09:30:49;11.53;;;3.03;;
16543;SDS011;8384;47.996;7.786;2022-11-21T09:33:14;7.17;;;2.70;;
16543;SDS011;8384;47.996;7.786;2022-11-21T09:35:43;9.47;;;2.33;;
16543;SDS011;8384;47.996;7.786;2022-11-21T09:38:08;11.20;;;2.53;;
16543;SDS011;8384;47.996;7.786;2022-11-21T09:40:34;9.57;;;2.50;;
16543;SDS011;8384;47.996;7.786;2022-11-21T09:43:13;11.67;;;2.40;;
16543;SDS011;8384;47.996;7.786;2022-11-21T09:45:50;6.80;;;2.23;;
16543;SDS011;8384;47.996;7.786;2022-11-21T09:48:20;9.97;;;2.53;;
16543;SDS011;8384;47.996;7.786;2022-11-21T09:50:53;11.87;;;3.00;;
16543;SDS011;8384;47.996;7.786;2022-11-21T09:53:34;8.07;;;2.50;;
16543;SDS011;8384;47.996;7.786;2022-11-21T09:56:04;8.50;;;2.57;;
16543;SDS011;8384;47.996;7.786;2022-11-21T09:58:41;11.37;;;2.20;;
16543;SDS011;8384;47.996;7.786;2022-11-21T10:01:28;9.03;;;2.23;;
16543;SDS011;8384;47.996;7.786;2022-11-21T10:03:54;4.73;;;1.87;;
16543;SDS011;8384;47.996;7.786;2022-11-21T10:06:20;5.10;;;2.17;;
16543;SDS011;8384;47.996;7.786;2022-11-21T10:23:17;8.73;;;2.63;;
16543;SDS011;8384;47.996;7.786;2022-11-21T10:25:55;10.07;;;3.30;;
16543;SDS011;8384;47.996;7.786;2022-11-21T10:31:12;8.97;;;2.40;;
16543;SDS011;8384;47.996;7.786;2022-11-21T10:33:39;9.47;;;2.70;;
16543;SDS011;8384;47.996;7.786;2022-11-21T10:36:08;8.17;;;2.20;;
16543;SDS011;8384;47.996;7.786;2022-11-21T10:38:45;10.73;;;2.83;;
16543;SDS011;8384;47.996;7.786;2022-11-21T10:41:16;8.73;;;2.73;;
16543;SDS011;8384;47.996;7.786;2022-11-21T10:43:46;6.07;;;2.10;;
16543;SDS011;8384;47.996;7.786;2022-11-21T10:46:41;6.00;;;2.23;;
16543;SDS011;8384;47.996;7.786;2022-11-21T10:49:18;8.63;;;2.10;;
16543;SDS011;8384;47.996;7.786;2022-11-21T10:54:28;7.27;;;2.00;;
16543;SDS011;8384;47.996;7.786;2022-11-21T10:57:01;4.47;;;1.60;;
16543;SDS011;8384;47.996;7.786;2022-11-21T10:59:36;5.07;;;1.87;;
16543;SDS011;8384;47.996;7.786;2022-11-21T11:02:19;7.20;;;2.20;;
16543;SDS011;8384;47.996;7.786;2022-11-21T11:04:48;9.50;;;2.43;;
16543;SDS011;8384;47.996;7.786;2022-11-21T11:09:52;5.73;;;2.00;;
16543;SDS011;8384;47.996;7.786;2022-11-21T11:12:46;8.73;;;1.70;;
16543;SDS011;8384;47.996;7.786;2022-11-21T11:15:32;7.70;;;1.97;;
16543;SDS011;8384;47.996;7.786;2022-11-21T11:18:02;7.80;;;1.90;;
16543;SDS011;8384;47.996;7.786;2022-11-21T11:20:30;6.60;;;1.93;;
16543;SDS011;8384;47.996;7.786;2022-11-21T11:23:16;5.33;;;1.70;;
16543;SDS011;8384;47.996;7.786;2022-11-21T11:25:49;9.83;;;2.10;;
16543;SDS011;8384;47.996;7.786;2022-11-21T11:28:16;7.37;;;1.60;;
16543;SDS011;8384;47.996;7.786;2022-11-21T11:30:45;6.83;;;1.80;;
16543;SDS011;8384;47.996;7.786;2022-11-21T11:35:54;5.97;;;1.53;;
16543;SDS011;8384;47.996;7.786;2022-11-21T11:38:24;4.47;;;1.50;;
16543;SDS011;8384;47.996;7.786;2022-11-21T11:40:53;9.07;;;1.90;;
16543;SDS011;8384;47.996;7.786;2022-11-21T11:43:31;8.07;;;1.97;;
16543;SDS011;8384;47.996;7.786;2022-11-21T11:52:24;4.47;;;1.57;;
16543;SDS011;8384;47.996;7.786;2022-11-21T11:54:57;4.77;;;1.40;;
16543;SDS011;8384;47.996;7.786;2022-11-21T11:57:28;5.47;;;1.63;;
16543;SDS011;8384;47.996;7.786;2022-11-21T12:00:02;4.30;;;1.63;;
16543;SDS011;8384;47.996;7.786;2022-11-21T12:02:51;6.13;;;1.47;;
16543;SDS011;8384;47.996;7.786;2022-11-21T12:05:24;5.43;;;1.33;;
16543;SDS011;8384;47.996;7.786;2022-11-21T12:07:55;3.97;;;1.53;;
16543;SDS011;8384;47.996;7.786;2022-11-21T12:10:40;4.67;;;1.50;;
16543;SDS011;8384;47.996;7.786;2022-11-21T12:13:30;5.67;;;1.77;;
16543;SDS011;8384;47.996;7.786;2022-11-21T12:15:58;6.80;;;1.83;;
16543;SDS011;8384;47.996;7.786;2022-11-21T12:18:37;3.80;;;1.43;;
16543;SDS011;8384;47.996;7.786;2022-11-21T12:21:15;6.50;;;1.77;;
16543;SDS011;8384;47.996;7.786;2022-11-21T12:23:46;4.37;;;1.20;;
16543;SDS011;8384;47.996;7.786;2022-11-21T12:37:07;3.23;;;1.13;;
16543;SDS011;8384;47.996;7.786;2022-11-21T12:45:29;7.47;;;1.53;;
16543;SDS011;8384;47.996;7.786;2022-11-21T12:48:18;6.73;;;1.50;;
16543;SDS011;8384;47.996;7.786;2022-11-21T12:59:41;5.57;;;1.60;;
16543;SDS011;8384;47.996;7.786;2022-11-21T13:02:20;5.07;;;1.47;;
16543;SDS011;8384;47.996;7.786;2022-11-21T13:04:54;4.23;;;1.80;;
16543;SDS011;8384;47.996;7.786;2022-11-21T13:07:22;6.40;;;1.60;;
16543;SDS011;8384;47.996;7.786;2022-11-21T13:09:53;5.40;;;1.40;;
16543;SDS011;8384;47.996;7.786;2022-11-21T13:18:12;3.53;;;1.37;;
16543;SDS011;8384;47.996;7.786;2022-11-21T13:20:52;7.63;;;1.73;;
16543;SDS011;8384;47.996;7.786;2022-11-21T13:25:55;5.17;;;1.60;;
16543;SDS011;8384;47.996;7.786;2022-11-21T13:28:30;7.27;;;1.73;;
16543;SDS011;8384;47.996;7.786;2022-11-21T13:30:58;7.27;;;1.70;;
16543;SDS011;8384;47.996;7.786;2022-11-21T13:36:10;2.63;;;1.27;;
16543;SDS011;8384;47.996;7.786;2022-11-21T13:47:03;4.10;;;1.23;;
16543;SDS011;8384;47.996;7.786;2022-11-21T13:49:34;5.40;;;1.93;;
16543;SDS011;8384;47.996;7.786;2022-11-21T13:52:05;4.30;;;1.10;;
16543;SDS011;8384;47.996;7.786;2022-11-21T14:00:27;4.43;;;1.53;;
16543;SDS011;8384;47.996;7.786;2022-11-21T14:08:19;7.43;;;1.97;;
16543;SDS011;8384;47.996;7.786;2022-11-21T14:10:46;3.73;;;1.63;;
16543;SDS011;8384;47.996;7.786;2022-11-21T14:13:27;3.97;;;1.70;;
16543;SDS011;8384;47.996;7.786;2022-11-21T14:18:42;4.00;;;2.03;;
16543;SDS011;8384;47.996;7.786;2022-11-21T14:21:22;3.47;;;2.10;;
16543;SDS011;8384;47.996;7.786;2022-11-21T14:23:51;4.97;;;1.73;;
16543;SDS011;8384;47.996;7.786;2022-11-21T14:26:20;4.87;;;1.50;;
16543;SDS011;8384;47.996;7.786;2022-11-21T14:28:46;4.13;;;1.30;;
16543;SDS011;8384;47.996;7.786;2022-11-21T14:31:11;4.10;;;1.30;;
16543;SDS011;8384;47.996;7.786;2022-11-21T14:33:44;4.57;;;1.33;;
16543;SDS011;8384;47.996;7.786;2022-11-21T14:36:15;4.87;;;1.20;;
16543;SDS011;8384;47.996;7.786;2022-11-21T14:41:34;5.70;;;1.70;;
16543;SDS011;8384;47.996;7.786;2022-11-21T14:51:44;6.23;;;2.50;;
16543;SDS011;8384;47.996;7.786;2022-11-21T14:54:18;8.77;;;2.23;;
16543;SDS011;8384;47.996;7.786;2022-11-21T14:56:52;7.07;;;2.10;;
16543;SDS011;8384;47.996;7.786;2022-11-21T14:59:26;4.00;;;1.93;;
16543;SDS011;8384;47.996;7.786;2022-11-21T15:01:56;5.17;;;1.63;;
16543;SDS011;8384;47.996;7.786;2022-11-21T15:04:25;8.23;;;1.90;;
16543;SDS011;8384;47.996;7.786;2022-11-21T15:06:54;6.60;;;1.73;;
16543;SDS011;8384;47.996;7.786;2022-11-21T15:09:20;8.33;;;1.70;;
16543;SDS011;8384;47.996;7.786;2022-11-21T15:14:35;3.30;;;1.70;;
16543;SDS011;8384;47.996;7.786;2022-11-21T15:17:07;6.20;;;1.70;;
16543;SDS011;8384;47.996;7.786;2022-11-21T15:19:36;5.57;;;1.77;;
16543;SDS011;8384;47.996;7.786;2022-11-21T15:22:02;6.10;;;1.90;;
16543;SDS011;8384;47.996;7.786;2022-11-21T15:26:56;7.23;;;2.00;;
16543;SDS011;8384;47.996;7.786;2022-11-21T15:29:22;4.90;;;1.87;;
16543;SDS011;8384;47.996;7.786;2022-11-21T15:32:04;7.67;;;2.00;;
16543;SDS011;8384;47.996;7.786;2022-11-21T15:34:33;8.57;;;2.67;;
16543;SDS011;8384;47.996;7.786;2022-11-21T15:37:03;8.80;;;2.80;;
16543;SDS011;8384;47.996;7.786;2022-11-21T15:39:35;3.83;;;2.20;;
16543;SDS011;8384;47.996;7.786;2022-11-21T15:44:58;7.47;;;2.20;;
16543;SDS011;8384;47.996;7.786;2022-11-21T15:47:25;5.30;;;2.20;;
16543;SDS011;8384;47.996;7.786;2022-11-21T15:49:50;7.20;;;2.77;;
16543;SDS011;8384;47.996;7.786;2022-11-21T15:52:15;7.87;;;2.40;;
16543;SDS011;8384;47.996;7.786;2022-11-21T15:54:40;5.93;;;3.10;;
16543;SDS011;8384;47.996;7.786;2022-11-21T15:57:07;8.67;;;3.90;;
16543;SDS011;8384;47.996;7.786;2022-11-21T15:59:33;5.90;;;3.27;;
16543;SDS011;8384;47.996;7.786;2022-11-21T16:02:01;12.63;;;5.20;;
16543;SDS011;8384;47.996;7.786;2022-11-21T16:04:26;30.83;;;17.30;;
16543;SDS011;8384;47.996;7.786;2022-11-21T16:06:54;20.80;;;11.63;;
16543;SDS011;8384;47.996;7.786;2022-11-21T16:09:19;17.60;;;10.13;;
16543;SDS011;8384;47.996;7.786;2022-11-21T16:11:44;11.57;;;6.53;;
16543;SDS011;8384;47.996;7.786;2022-11-21T16:14:13;13.27;;;7.87;;
16543;SDS011;8384;47.996;7.786;2022-11-21T16:16:40;11.60;;;7.40;;
16543;SDS011;8384;47.996;7.786;2022-11-21T16:19:08;15.50;;;9.90;;
16543;SDS011;8384;47.996;7.786;2022-11-21T16:21:34;22.83;;;15.50;;
16543;SDS011;8384;47.996;7.786;2022-11-21T16:24:00;12.03;;;6.50;;
16543;SDS011;8384;47.996;7.786;2022-11-21T16:26:26;10.97;;;7.50;;
16543;SDS011;8384;47.996;7.786;2022-11-21T16:28:54;11.80;;;5.70;;
16543;SDS011;8384;47.996;7.786;2022-11-21T16:31:20;10.90;;;5.40;;
16543;SDS011;8384;47.996;7.786;2022-11-21T16:33:50;11.00;;;5.17;;
16543;SDS011;8384;47.996;7.786;2022-11-21T16:36:19;12.60;;;5.27;;
16543;SDS011;8384;47.996;7.786;2022-11-21T16:38:49;10.63;;;5.00;;
16543;SDS011;8384;47.996;7.786;2022-11-21T16:41:18;11.37;;;5.27;;
16543;SDS011;8384;47.996;7.786;2022-11-21T16:43:46;7.93;;;4.90;;
16543;SDS011;8384;47.996;7.786;2022-11-21T16:46:15;6.57;;;4.00;;
16543;SDS011;8384;47.996;7.786;2022-11-21T16:48:41;8.17;;;3.87;;
16543;SDS011;8384;47.996;7.786;2022-11-21T16:51:13;7.20;;;2.87;;
16543;SDS011;8384;47.996;7.786;2022-11-21T16:53:43;6.73;;;3.73;;
16543;SDS011;8384;47.996;7.786;2022-11-21T16:56:10;5.37;;;2.87;;
16543;SDS011;8384;47.996;7.786;2022-11-21T16:58:36;6.50;;;3.23;;
16543;SDS011;8384;47.996;7.786;2022-11-21T17:01:09;5.97;;;3.17;;
16543;SDS011;8384;47.996;7.786;2022-11-21T17:03:40;6.00;;;3.57;;
16543;SDS011;8384;47.996;7.786;2022-11-21T17:06:08;7.63;;;3.37;;
16543;SDS011;8384;47.996;7.786;2022-11-21T17:08:35;5.73;;;2.87;;